Date,TemperatureHighF,TemperatureAvgF,TemperatureLowF,DewpointHighF,DewpointAvgF,DewpointLowF,HumidityHigh,HumidityAvg,HumidityLow,PressureMaxIn,PressureMinIn,WindSpeedMaxMPH,WindSpeedAvgMPH,GustSpeedMaxMPH,PrecipitationSumIn
2013-1-1,38.8,31.8,18.7,24.8,17.7,4.5,66,56,41,30.00,29.82,12,2,12,0.00
2013-1-2,28.4,19.7,7.5,13.3,8.2,1.8,80,62,39,30.16,29.98,11,1,11,0.00
2013-1-3,27.7,18.0,7.9,11.7,4.9,-3.6,78,57,40,30.19,30.05,7,1,7,0.00
2013-1-4,41.2,28.9,14.4,40.1,18.3,9.1,96,66,45,30.05,29.52,14,2,14,1.84
2013-1-5,42.4,31.4,22.8,22.5,18.3,14.9,83,59,38,30.26,29.93,12,2,12,0.00
2013-1-6,45.0,31.5,22.8,28.7,23.2,18.2,88,73,45,30.21,29.96,9,1,9,0.00
2013-1-7,40.5,30.1,19.9,27.0,19.7,14.7,89,68,39,30.40,30.02,8,2,8,0.00
2013-1-8,48.2,30.5,16.7,26.6,21.2,13.3,89,71,39,30.41,30.31,12,1,12,0.00
2013-1-9,42.8,32.0,20.3,34.3,26.7,17.7,91,81,66,30.38,30.08,10,1,10,0.00
2013-1-10,45.5,38.8,27.3,32.2,20.7,15.0,78,49,31,30.56,30.15,12,3,12,0.00
2013-1-11,36.9,29.4,23.4,30.9,23.3,20.1,89,78,62,30.54,30.31,4,1,4,0.08
2013-1-13,45.9,44.9,44.4,45.6,44.6,44.2,99,99,99,30.08,30.01,5,2,5,0.01
2013-1-14,55.9,44.8,34.7,53.1,39.6,24.4,99,84,57,30.30,29.90,8,2,8,0.04
2013-1-15,37.0,34.2,30.7,29.2,25.2,22.1,86,70,56,30.34,30.22,5,2,5,0.01
2013-1-16,33.1,31.1,28.9,31.8,29.2,22.6,98,93,65,30.22,29.81,4,1,4,0.06
2013-1-17,43.0,34.0,26.8,32.9,26.6,10.4,99,76,50,30.10,29.87,11,2,11,0.01
2013-1-18,27.3,22.4,16.0,11.4,3.6,-7.6,68,45,23,30.46,30.03,11,3,11,0.00
2013-1-19,42.6,32.8,15.8,26.6,19.9,7.5,75,59,43,30.37,29.89,9,2,9,0.00
2013-1-20,51.3,38.6,26.2,28.3,19.6,4.6,78,50,20,29.99,29.65,20,4,20,0.00
2013-1-21,27.9,23.7,19.0,20.0,9.9,1.1,86,58,36,30.08,29.78,9,2,10,0.00
2013-1-22,23.7,17.3,8.8,16.1,-0.5,-11.5,87,49,23,30.13,29.77,17,3,17,0.00
2013-1-23,19.0,10.0,3.0,-4.0,-8.6,-15.8,61,43,22,30.18,30.10,16,2,16,0.00
2013-1-24,20.7,8.2,-3.1,-0.1,-6.9,-11.3,77,53,24,30.32,30.11,22,3,22,0.00
2013-1-25,20.7,14.5,6.6,10.4,-1.2,-7.4,79,51,28,30.36,30.04,12,2,12,0.00
2013-1-26,24.1,16.2,7.5,10.4,3.1,-3.4,83,58,31,30.32,30.00,14,3,14,0.00
2013-1-27,32.7,20.4,7.7,8.9,-2.5,-18.9,78,42,10,30.48,30.31,13,2,13,0.00
2013-1-28,31.3,23.8,14.9,29.8,18.7,3.4,95,81,54,30.47,29.98,5,1,5,0.00
2013-1-29,35.6,33.1,30.7,33.5,31.5,29.7,97,94,89,30.16,29.98,5,1,5,0.07
2013-1-30,55.0,44.1,33.6,54.8,43.8,32.6,99,99,96,30.11,29.40,17,3,17,0.06
2013-1-31,59.4,44.5,28.0,59.1,32.0,7.7,99,65,26,29.70,29.03,33,9,33,0.83
2013-2-1,31.1,25.4,20.1,14.1,6.4,-1.5,66,45,25,30.15,29.69,19,4,20,0.00
2013-2-2,31.1,22.4,14.0,16.7,5.9,-5.7,83,52,21,30.26,30.05,14,3,14,0.00
2013-2-3,30.9,22.9,15.4,17.3,13.8,10.8,87,69,45,30.05,29.77,7,2,7,0.04
2013-2-4,31.5,23.3,16.7,18.0,7.6,-2.0,87,54,24,29.94,29.76,17,3,17,0.00
2013-2-5,27.5,23.8,20.3,22.0,16.6,7.7,88,74,56,29.99,29.90,5,1,5,0.00
2013-2-6,39.0,29.7,24.3,26.3,16.6,-2.7,91,62,30,30.32,29.90,11,2,11,0.02
2013-2-7,34.0,24.1,15.4,11.3,1.4,-6.5,69,39,19,30.49,30.17,7,2,7,0.00
2013-2-8,29.1,26.5,22.1,28.1,21.4,9.4,97,82,49,30.36,29.59,22,7,22,0.01
2013-2-9,23.7,20.3,14.4,21.6,16.8,7.1,95,86,71,30.26,29.69,23,6,23,0.00
2013-2-10,37.8,21.5,7.2,25.8,13.7,2.8,90,72,46,30.45,30.25,9,2,9,0.00
2013-2-11,41.2,32.4,17.6,40.9,30.2,11.3,99,92,74,30.32,29.64,7,1,7,0.33
2013-2-12,47.1,38.9,34.3,39.5,26.7,21.3,99,64,40,29.92,29.65,21,3,21,0.00
2013-2-13,45.5,35.2,24.4,29.1,20.7,13.5,89,58,28,29.90,29.69,8,2,8,0.00
2013-2-14,45.3,34.5,25.2,30.1,23.3,16.3,91,67,32,29.97,29.70,10,1,10,0.06
2013-2-15,53.2,37.4,25.0,32.0,27.4,21.9,91,70,36,30.01,29.90,14,2,14,0.00
2013-2-16,39.6,32.2,27.1,31.7,21.9,12.9,94,68,36,29.95,29.69,8,2,8,0.09
2013-2-17,29.8,22.5,14.5,14.2,-0.1,-14.5,55,38,14,29.85,29.56,27,6,27,0.00
2013-2-18,34.9,22.6,12.4,9.8,-0.5,-9.7,62,38,14,30.18,29.85,16,4,16,0.00
2013-2-19,43.9,32.3,18.5,38.5,24.8,9.2,96,75,48,30.19,29.61,13,2,13,0.24
2013-2-20,36.7,29.3,21.4,32.6,12.9,4.4,85,51,33,29.88,29.61,21,4,21,0.01
2013-2-21,33.6,24.6,20.1,11.4,9.7,6.7,67,53,34,30.27,29.86,16,5,16,0.00
2013-2-22,38.3,28.8,17.1,25.5,17.5,11.0,82,64,41,30.39,30.24,8,2,8,0.00
2013-2-23,36.9,34.0,32.4,35.3,30.8,24.5,97,88,72,30.27,29.82,8,2,8,0.11
2013-2-24,42.4,36.0,31.8,35.8,31.1,23.2,98,83,62,29.92,29.71,17,3,17,0.02
2013-2-25,47.7,36.3,27.9,25.1,22.9,20.6,80,60,36,30.23,29.91,10,2,10,0.00
2013-2-26,42.8,34.0,24.8,30.2,24.2,20.2,91,69,42,30.31,29.99,12,3,12,0.07
2013-2-27,42.4,38.3,32.7,40.9,37.0,30.4,98,95,91,29.99,29.52,18,6,18,0.91
2013-2-28,49.8,38.8,31.8,40.5,33.8,31.3,99,84,56,29.61,29.52,9,1,9,0.00
2013-3-1,46.2,37.9,33.6,32.7,28.0,22.6,87,69,42,29.74,29.55,13,3,13,0.01
2013-3-2,39.2,33.9,28.9,25.1,22.7,21.0,76,64,49,29.74,29.65,13,3,13,0.00
2013-3-3,33.1,29.0,25.9,23.4,19.1,14.5,76,67,50,29.69,29.63,13,4,13,0.00
2013-3-4,40.1,31.5,25.9,20.7,18.0,15.4,71,58,41,29.84,29.69,21,5,21,0.00
2013-3-5,48.0,37.6,28.0,25.0,21.4,18.5,72,53,32,30.02,29.83,14,3,14,0.00
2013-3-6,40.5,37.1,34.5,33.7,28.1,23.4,87,70,57,30.00,29.91,25,9,25,0.00
2013-3-7,37.6,33.5,31.1,31.8,28.1,24.2,92,81,63,30.04,29.93,18,6,18,0.01
2013-3-8,37.4,33.0,28.6,32.9,28.5,22.3,95,84,57,30.16,29.94,9,2,9,0.24
2013-3-9,57.9,40.6,28.8,24.6,18.7,-3.9,75,47,11,30.32,30.14,19,2,19,0.01
2013-3-10,53.6,37.6,23.9,31.9,26.4,20.6,88,67,33,30.39,30.29,9,3,9,0.00
2013-3-11,53.2,42.8,34.9,43.8,36.9,31.0,96,81,59,30.31,30.09,11,4,11,0.00
2013-3-12,53.2,48.8,39.9,52.6,47.7,35.9,99,96,86,30.10,29.67,14,5,14,0.84
2013-3-13,50.9,40.9,33.8,35.9,24.7,12.4,87,56,26,29.86,29.76,16,3,16,0.01
2013-3-14,35.6,31.1,26.6,27.4,12.6,2.3,81,48,26,29.88,29.80,20,5,20,0.00
2013-3-15,43.0,32.6,22.8,27.3,14.0,3.0,74,48,21,29.91,29.69,16,4,16,0.00
2013-3-16,39.6,32.7,27.3,26.7,18.6,5.9,84,58,26,29.88,29.71,8,2,8,0.00
2013-3-17,36.9,29.8,23.2,25.4,8.5,-8.0,83,45,15,30.30,29.88,14,3,14,0.00
2013-3-18,35.2,27.6,20.3,26.7,6.0,-9.0,94,45,16,30.41,30.07,13,4,13,0.00
2013-3-19,38.1,32.5,28.2,35.1,30.1,26.3,95,91,81,30.08,29.64,14,4,14,0.27
2013-3-20,42.6,33.6,26.4,29.4,16.9,8.7,88,53,25,29.82,29.74,22,3,22,0.02
2013-3-21,38.3,31.6,27.0,22.6,14.0,2.1,81,52,23,29.81,29.60,10,2,10,0.00
2013-3-22,40.6,31.6,22.6,20.3,14.3,7.1,63,49,33,29.81,29.66,16,3,16,0.00
2013-3-23,45.9,36.8,29.7,20.9,15.7,3.1,66,45,19,29.88,29.73,20,5,20,0.00
2013-3-24,45.0,36.5,26.2,21.2,17.2,13.4,67,46,30,29.89,29.71,12,3,12,0.00
2013-3-25,43.9,38.2,32.4,24.8,21.4,18.5,62,51,36,29.73,29.45,16,5,16,0.00
2013-3-26,51.1,39.8,29.5,26.8,21.8,13.9,68,50,25,29.83,29.56,14,3,14,0.00
2013-3-27,54.3,39.4,25.3,25.7,17.6,6.5,80,48,16,29.89,29.81,16,3,16,0.00
2013-3-28,43.3,42.8,42.4,30.8,30.2,29.9,62,61,59,30.07,30.03,5,2,5,0.00
2013-3-29,57.2,45.8,37.2,30.3,23.7,15.1,63,44,20,30.11,30.02,13,3,13,0.00
2013-3-30,57.9,45.0,31.5,30.3,17.0,-0.9,77,40,10,30.14,30.04,12,2,12,0.00
2013-3-31,56.1,43.0,27.0,40.3,22.5,12.6,92,48,19,30.12,29.66,17,5,17,0.11
2013-4-1,62.2,46.1,33.1,45.1,29.1,9.0,92,53,33,29.86,29.58,21,4,21,0.07
2013-4-2,43.3,34.6,26.6,16.7,5.5,-10.4,58,33,10,30.00,29.86,20,5,25,0.00
2013-4-3,47.5,35.7,27.5,11.8,4.4,-9.5,48,29,10,30.25,30.00,19,5,19,0.00
2013-4-4,56.7,40.1,27.1,27.0,11.6,-3.0,68,36,10,30.34,30.07,13,4,13,0.00
2013-4-5,62.2,45.4,34.9,29.0,16.9,-0.4,76,40,10,30.07,29.70,13,3,13,0.00
2013-4-6,49.1,39.0,30.6,19.6,1.5,-11.9,54,25,10,30.30,29.95,16,4,16,0.00
2013-4-7,55.9,42.1,28.0,39.8,25.8,8.8,86,55,27,30.30,30.00,19,5,19,0.00
2013-4-8,70.5,53.9,36.3,42.0,33.4,21.6,94,55,17,30.08,29.96,11,2,11,0.00
2013-4-9,78.8,62.7,47.3,51.4,39.4,26.3,93,49,18,30.02,29.90,23,3,23,0.00
2013-4-10,67.3,58.3,48.4,53.7,47.3,34.3,96,69,41,29.96,29.83,11,3,11,0.20
2013-4-11,55.4,51.3,43.7,51.5,40.2,19.0,97,68,30,30.08,29.82,10,4,10,0.00
2013-4-12,43.9,39.1,36.3,37.3,34.3,28.1,94,83,55,30.08,29.74,14,6,14,0.37
2013-4-13,54.1,44.9,35.1,37.5,33.3,28.1,95,67,38,29.94,29.74,10,2,10,0.07
2013-4-14,55.0,45.5,35.6,36.1,25.9,13.4,81,49,20,30.22,29.92,17,3,17,0.00
2013-4-15,59.4,44.9,32.0,31.8,26.1,19.9,81,52,22,30.38,30.20,12,3,12,0.00
2013-4-16,66.0,50.6,36.0,51.3,41.7,28.7,94,73,44,30.38,30.11,18,4,18,0.02
2013-4-17,68.0,56.8,48.2,52.0,32.8,12.4,94,49,13,30.31,30.11,14,3,14,0.02
2013-4-18,61.3,51.5,42.4,46.3,33.1,8.3,83,53,17,30.38,30.14,14,5,14,0.00
2013-4-19,72.3,60.4,51.1,61.0,56.4,46.3,99,87,64,30.15,29.67,20,6,20,0.04
2013-4-20,62.2,51.0,39.7,60.6,31.7,-0.4,96,56,19,30.30,29.67,21,4,21,0.31
2013-4-21,53.2,42.7,31.8,25.1,13.2,-3.6,59,34,12,30.65,30.30,11,4,11,0.00
2013-4-22,57.2,45.0,34.2,33.8,24.7,7.3,79,50,15,30.71,30.53,23,5,23,0.00
2013-4-23,46.0,41.3,36.0,37.4,32.9,26.3,83,72,60,30.54,30.12,12,5,12,0.00
2013-4-24,75.6,55.0,42.4,47.3,40.6,34.6,88,63,23,30.12,29.84,13,5,13,0.00
2013-4-25,63.1,54.1,45.9,49.8,25.3,3.0,94,41,10,30.30,29.86,14,4,14,0.01
2013-4-26,67.6,56.3,47.1,36.7,24.3,7.0,74,37,10,30.44,30.28,12,3,12,0.00
2013-4-27,69.6,53.9,34.3,32.9,21.5,6.7,72,35,10,30.45,30.29,10,3,10,0.00
2013-4-28,70.7,55.7,39.0,39.0,29.1,18.5,77,40,19,30.34,30.23,14,4,14,0.00
2013-4-29,58.8,53.6,47.5,44.0,37.0,25.9,74,54,37,30.28,30.23,10,3,10,0.00
2013-4-30,69.3,57.2,45.5,41.4,22.8,2.8,78,36,10,30.38,30.25,11,3,11,0.00
2013-5-1,72.0,52.8,36.3,41.3,30.4,7.1,75,44,10,30.51,30.37,10,3,10,0.00
2013-5-2,80.1,64.2,41.4,43.1,30.7,15.6,88,37,10,30.49,30.33,11,4,11,0.00
2013-5-3,68.9,57.4,48.0,40.7,31.2,14.7,75,40,13,30.50,30.37,11,4,11,0.00
2013-5-4,73.4,54.9,39.9,44.1,37.5,26.9,91,59,18,30.41,30.25,13,3,13,0.00
2013-5-5,68.5,50.7,34.5,39.9,34.2,21.7,93,60,17,30.33,30.23,10,3,10,0.00
2013-5-6,74.1,55.3,39.4,47.7,42.4,35.3,92,66,30,30.30,30.17,10,3,10,0.00
2013-5-7,78.8,61.3,42.8,54.4,47.2,39.1,92,65,25,30.22,30.13,10,2,10,0.00
2013-5-8,65.5,60.5,54.5,61.0,57.6,51.6,96,90,83,30.19,30.04,7,3,7,0.01
2013-5-9,63.1,57.3,51.8,59.0,55.5,50.7,99,94,81,30.07,29.91,5,1,5,0.25
2013-5-10,80.4,63.9,47.3,61.1,51.4,42.1,99,69,29,30.01,29.94,9,2,9,0.00
2013-5-11,63.9,60.7,57.2,63.4,59.0,53.5,99,94,76,29.94,29.73,9,2,9,0.33
2013-5-12,69.3,58.8,47.7,59.3,42.9,4.9,99,64,10,29.91,29.66,16,2,16,0.05
2013-5-13,57.0,47.5,36.7,31.7,25.4,13.6,77,45,19,30.11,29.91,13,3,13,0.02
2013-5-14,59.2,47.4,33.4,34.6,23.7,10.0,84,47,16,30.11,30.03,10,2,10,0.00
2013-5-15,63.0,49.1,32.2,52.0,41.3,28.8,90,76,42,30.10,29.71,10,2,10,0.02
2013-5-16,83.3,63.9,43.9,56.9,35.3,17.0,96,51,10,29.87,29.73,16,2,16,0.00
2013-5-17,71.4,59.1,48.6,44.1,37.8,27.6,83,48,22,30.24,29.87,10,2,10,0.00
2013-5-18,70.7,55.7,41.4,47.4,42.5,37.5,88,64,34,30.33,30.24,7,1,7,0.00
2013-5-19,56.5,53.4,48.0,55.1,51.7,43.6,98,94,85,30.35,30.21,5,1,5,0.17
2013-5-20,81.7,66.0,55.4,67.9,60.2,54.9,99,84,51,30.21,29.99,6,1,6,0.06
2013-5-21,89.1,73.1,59.2,69.4,63.8,58.1,98,76,42,30.02,29.88,9,1,9,0.00
2013-5-22,77.2,64.9,56.1,69.1,61.7,53.7,97,90,75,29.99,29.88,7,2,7,0.37
2013-5-23,69.8,65.9,64.0,68.8,65.1,63.3,99,97,93,29.94,29.81,5,2,5,2.54
2013-5-24,64.2,55.8,44.2,63.8,55.1,43.7,99,98,91,29.92,29.69,9,2,9,0.37
2013-5-25,46.2,44.0,42.8,45.1,42.7,40.3,99,95,88,29.92,29.84,14,4,14,0.66
2013-5-26,61.5,50.9,42.8,41.5,38.1,32.7,91,64,35,30.19,29.87,17,4,17,0.00
2013-5-27,72.9,55.7,35.1,48.0,35.6,22.9,95,56,17,30.23,30.14,11,2,11,0.04
2013-5-28,70.5,55.6,42.3,55.8,47.7,40.0,97,78,37,30.24,30.16,5,1,5,0.00
2013-5-29,80.2,65.7,56.5,69.6,62.1,55.8,99,89,62,30.17,30.03,9,1,9,0.13
2013-5-30,90.1,75.2,60.4,72.4,63.8,59.6,98,72,37,30.17,30.09,10,1,10,0.00
2013-5-31,92.7,76.7,62.1,69.7,63.4,53.7,95,68,28,30.17,30.04,10,1,10,0.00
2013-6-1,90.5,75.4,60.8,68.9,64.0,58.8,94,71,35,30.07,29.95,8,2,8,0.00
2013-6-2,86.4,74.7,65.8,69.2,67.0,63.5,94,79,53,29.96,29.80,9,2,9,0.00
2013-6-3,78.1,68.8,60.3,69.0,63.8,48.3,99,85,59,29.93,29.83,6,1,6,0.00
2013-6-4,72.3,61.2,50.9,48.9,42.3,35.9,79,52,27,30.14,29.93,13,3,13,0.00
2013-6-5,74.1,60.4,45.7,51.3,45.3,36.9,90,61,28,30.22,30.13,6,2,6,0.00
2013-6-6,70.0,58.6,47.8,56.8,51.1,44.6,96,78,56,30.18,30.06,9,2,9,0.00
2013-6-7,59.7,57.0,54.5,59.5,56.6,53.6,99,98,96,30.07,29.72,6,2,6,1.78
2013-6-8,77.2,63.4,52.7,63.7,57.6,52.4,99,83,55,30.09,29.63,10,2,10,0.31
2013-6-9,79.2,66.2,54.7,64.6,56.5,49.9,98,74,38,30.23,30.08,7,1,7,0.00
2013-6-10,70.5,62.0,56.5,62.9,58.9,54.8,99,90,73,30.22,29.94,9,1,9,1.09
2013-6-11,77.2,63.3,58.8,71.5,61.1,55.7,99,93,72,29.94,29.62,5,2,5,0.76
2013-6-12,71.4,63.9,55.0,55.9,52.8,49.1,88,68,47,29.90,29.69,13,3,13,0.00
2013-6-13,57.6,54.4,50.7,56.5,53.4,49.1,99,96,89,29.88,29.59,9,2,9,1.42
2013-6-14,70.9,57.9,50.5,62.2,54.4,50.3,99,89,56,29.89,29.59,12,2,12,0.72
2013-6-15,77.7,64.5,50.9,63.8,51.3,40.5,99,68,27,30.02,29.89,9,2,9,0.01
2013-6-16,77.2,63.7,50.2,62.1,56.1,48.5,95,78,45,30.02,29.78,9,1,9,0.00
2013-6-17,84.2,69.9,57.2,66.7,59.8,53.8,97,73,43,29.99,29.87,17,2,17,0.00
2013-6-18,80.4,65.5,57.0,67.3,60.7,55.4,99,86,56,29.99,29.86,11,2,11,0.92
2013-6-19,74.5,63.0,51.8,59.1,49.6,32.3,99,67,22,30.20,29.94,7,2,7,0.00
2013-6-20,78.8,63.8,47.1,57.3,51.3,44.8,94,67,34,30.30,30.20,7,1,7,0.00
2013-6-21,82.4,68.2,52.5,63.5,57.4,50.4,93,70,46,30.32,30.26,7,1,7,0.00
2013-6-22,83.5,69.6,55.4,63.0,57.4,53.1,94,68,37,30.30,30.18,8,1,8,0.00
2013-6-23,88.7,73.5,58.8,69.1,63.0,56.0,92,72,35,30.24,30.10,9,2,9,0.00
2013-6-24,90.9,75.9,66.6,73.0,68.1,61.3,98,80,46,30.13,29.98,8,2,8,0.81
2013-6-25,88.3,73.5,63.5,75.9,68.7,63.2,99,87,53,30.06,29.83,8,1,8,0.00
2013-6-26,80.8,73.8,68.5,72.7,69.7,67.5,99,87,69,29.90,29.81,8,1,8,0.00
2013-6-27,80.4,71.2,64.8,72.2,68.8,64.4,99,92,70,29.88,29.66,7,1,7,0.67
2013-6-28,80.8,73.3,68.9,75.7,71.7,68.3,99,95,75,29.67,29.53,8,2,8,0.18
2013-6-29,82.8,73.4,66.7,72.3,68.4,63.6,99,86,55,29.77,29.55,9,2,9,0.00
2013-6-30,81.3,73.8,70.0,74.2,71.1,69.1,99,92,75,29.99,29.77,8,2,8,0.00
2013-7-1,74.5,72.1,70.9,73.9,71.9,70.6,99,99,98,30.11,29.97,5,1,5,1.07
2013-7-2,80.2,74.0,71.1,77.7,72.6,70.8,99,96,81,30.23,30.11,7,1,7,0.08
2013-7-3,83.1,75.6,70.0,76.1,71.9,69.7,99,89,70,30.29,30.21,11,2,11,0.00
2013-7-4,88.7,79.2,72.3,76.0,72.8,70.2,99,82,57,30.30,30.19,9,2,9,0.02
2013-7-5,91.0,80.0,71.2,74.5,71.9,69.1,95,78,50,30.26,30.13,7,2,7,0.00
2013-7-6,90.3,80.6,72.3,74.7,71.5,68.2,94,75,49,30.18,30.07,9,2,9,0.00
2013-7-7,91.6,80.5,70.5,76.8,73.2,69.1,96,80,54,30.11,29.96,6,1,6,0.00
2013-7-8,88.0,78.6,69.6,74.0,68.5,64.3,92,72,47,30.09,29.99,9,2,9,0.00
2013-7-9,87.8,75.1,66.4,72.1,68.6,64.3,95,81,51,30.13,30.06,5,1,5,0.00
2013-7-10,82.8,75.3,70.7,78.4,73.1,69.1,99,93,74,30.09,29.85,7,1,7,0.47
2013-7-11,82.4,73.8,68.4,76.3,70.1,62.7,99,89,65,29.99,29.85,5,1,5,0.02
2013-7-12,78.4,72.0,65.8,66.6,62.9,55.1,92,73,58,30.20,29.98,6,2,6,0.00
2013-7-13,75.9,61.0,0.0,72.6,66.8,59.5,98,80,80,30.35,0.00,4,1,4,0.17
2013-7-14,88.9,79.2,72.3,77.2,73.2,70.4,99,83,59,30.38,30.27,7,1,7,0.00
2013-7-15,89.6,79.9,70.7,77.3,71.3,65.3,98,77,48,30.29,30.19,11,1,11,0.00
2013-7-16,90.9,79.5,67.6,72.6,68.1,62.8,94,71,41,30.25,30.18,9,2,9,0.00
2013-7-17,93.0,80.1,68.2,75.1,70.1,63.4,95,74,40,30.26,30.11,5,1,5,0.00
2013-7-18,93.6,82.2,71.2,76.9,72.5,69.3,95,75,47,30.12,30.01,6,1,6,0.00
2013-7-19,94.6,83.2,72.9,77.5,74.1,71.4,97,76,49,30.02,29.82,10,2,10,0.00
2013-7-20,91.2,80.8,72.0,77.5,72.7,66.7,90,77,50,29.91,29.76,9,2,9,0.18
2013-7-21,87.4,75.0,67.3,69.0,65.2,58.2,92,74,39,30.03,29.90,5,1,5,0.00
2013-7-22,81.7,72.9,63.9,72.9,68.7,62.1,97,87,72,30.03,29.89,5,1,5,0.02
2013-7-23,86.4,75.2,71.1,77.7,72.9,70.7,99,93,62,29.89,29.61,11,1,11,0.99
2013-7-24,79.5,72.2,62.4,74.8,66.4,53.4,99,83,65,29.99,29.66,6,2,6,0.00
2013-7-25,64.4,61.0,58.3,59.1,54.5,48.6,96,79,70,30.11,29.98,5,2,5,0.01
2013-7-26,74.3,65.2,60.1,71.0,62.9,59.0,99,93,72,30.09,30.02,5,1,5,0.20
2013-7-27,80.1,69.0,59.0,70.6,62.9,58.2,99,83,55,30.10,30.03,7,1,7,0.00
2013-7-28,78.3,69.2,62.1,69.0,65.4,60.6,98,88,69,30.06,29.99,5,1,5,0.01
2013-7-29,83.7,72.9,62.8,72.4,64.4,53.1,99,77,48,30.14,30.01,11,1,11,0.00
2013-7-30,79.2,67.2,55.9,62.2,57.4,53.8,95,73,43,30.20,30.13,8,2,8,0.00
2013-7-31,80.4,67.9,55.9,63.2,58.7,51.7,96,75,40,30.20,30.09,5,1,5,0.00
2013-8-1,73.8,65.0,58.6,68.5,63.4,57.2,99,94,74,30.11,29.88,6,1,6,0.47
2013-8-2,84.4,70.8,63.3,71.4,63.9,56.0,99,81,47,29.95,29.83,9,2,9,0.31
2013-8-3,78.3,66.9,61.5,68.7,64.1,60.2,98,91,63,29.95,29.87,5,1,5,0.07
2013-8-4,78.6,65.4,54.9,67.3,56.8,51.0,99,76,43,29.98,29.88,10,2,10,0.01
2013-8-5,74.7,64.3,54.7,54.1,48.8,36.4,91,61,26,30.08,29.96,11,2,11,0.00
2013-8-6,78.6,64.2,49.6,59.5,54.0,48.0,95,72,38,30.18,30.07,5,1,5,0.00
2013-8-7,74.5,65.5,54.7,65.3,59.7,50.4,95,82,58,30.19,30.12,7,2,7,0.00
2013-8-8,78.3,71.8,68.0,73.4,69.2,65.3,98,92,80,30.12,30.06,6,2,6,0.01
2013-8-9,76.6,73.0,70.9,76.4,72.5,69.4,99,98,95,30.07,29.84,9,2,9,2.22
2013-8-10,81.5,71.5,60.1,71.7,64.2,56.2,99,80,49,30.10,29.89,9,1,9,0.01
2013-8-11,78.6,65.3,50.9,61.9,55.5,48.2,96,74,40,30.17,30.07,9,1,9,0.00
2013-8-12,81.1,68.8,59.2,65.4,60.2,51.6,97,77,40,30.10,29.97,5,1,5,0.00
2013-8-13,72.5,66.6,61.7,70.5,64.6,60.3,99,93,81,29.99,29.74,5,1,5,0.17
2013-8-14,72.9,63.6,54.3,63.0,54.3,48.3,98,74,48,30.04,29.78,16,2,16,0.00
2013-8-15,75.2,61.8,48.6,58.1,51.5,42.1,95,72,33,30.17,30.05,11,1,11,0.00
2013-8-16,78.1,63.4,50.7,61.3,54.5,49.3,96,76,42,30.25,30.14,7,1,7,0.00
2013-8-17,79.9,65.5,52.7,63.7,57.0,51.3,96,77,41,30.32,30.23,5,1,5,0.01
2013-8-18,75.6,65.6,57.7,65.1,60.5,56.3,96,84,62,30.31,30.16,3,1,3,0.00
2013-8-19,77.2,67.4,58.8,76.0,61.9,57.1,99,84,60,30.16,29.65,7,1,7,0.00
2013-8-20,83.3,69.8,58.1,67.1,61.2,56.7,97,77,44,30.19,30.08,7,1,7,0.00
2013-8-21,86.0,71.0,58.3,69.4,61.9,56.9,95,76,40,30.23,30.10,8,1,8,0.00
2013-8-22,77.4,69.6,61.3,74.0,67.1,59.6,95,92,82,30.12,29.91,9,1,9,0.14
2013-8-23,78.8,70.1,61.0,68.2,61.2,52.2,96,76,43,30.16,29.91,9,2,9,0.00
2013-8-24,78.1,65.2,54.5,56.8,51.4,44.8,90,64,32,30.38,30.16,5,1,5,0.00
2013-8-25,81.9,64.3,49.8,61.6,52.7,43.9,94,71,30,30.40,30.26,7,1,7,0.00
2013-8-26,72.9,65.8,59.4,67.6,62.9,56.4,95,90,79,30.26,29.95,5,0,5,0.14
2013-8-27,82.4,72.1,67.5,73.9,68.5,65.3,99,89,66,29.97,29.85,9,1,9,0.45
2013-8-28,87.8,71.5,61.9,71.6,65.6,60.5,97,83,49,29.98,29.91,5,1,5,0.00
2013-8-29,76.8,69.4,64.9,67.1,65.0,61.9,96,86,67,30.10,29.97,5,1,5,0.02
2013-8-30,82.4,70.5,63.9,69.7,65.2,60.9,94,84,58,30.09,29.91,6,1,6,0.00
2013-8-31,80.2,73.5,67.8,74.5,70.4,65.6,96,90,81,29.91,29.84,5,1,5,0.00
2013-9-1,79.2,74.8,71.4,74.6,71.9,69.5,95,91,83,29.91,29.86,5,1,5,0.00
2013-9-2,79.0,72.9,68.5,74.4,70.7,67.1,96,93,84,29.88,29.73,4,1,4,0.01
2013-9-3,75.7,68.6,60.4,69.8,64.8,57.5,99,88,69,29.92,29.76,6,1,6,0.01
2013-9-4,79.9,65.2,53.6,61.8,56.3,48.1,98,76,37,30.00,29.91,9,2,9,0.00
2013-9-5,72.3,61.8,52.0,63.2,51.4,39.1,96,72,35,30.16,29.93,10,1,10,0.00
2013-9-6,69.6,55.6,44.1,49.2,43.0,34.8,93,67,30,30.24,30.13,10,2,10,0.00
2013-9-7,77.5,59.2,42.3,58.1,48.6,40.7,95,72,30,30.14,29.92,8,1,8,0.00
2013-9-8,76.3,64.8,52.3,62.0,54.1,38.8,93,71,28,30.12,29.83,11,2,11,0.00
2013-9-9,70.2,56.7,42.6,52.4,46.3,38.7,95,72,39,30.24,30.11,8,2,8,0.00
2013-9-10,77.7,66.0,55.8,75.4,64.0,52.3,99,93,86,30.20,30.07,5,1,5,0.08
2013-9-11,92.8,77.6,66.0,78.4,71.6,65.5,99,84,52,30.16,30.02,9,1,9,0.00
2013-9-12,84.0,73.0,66.7,74.8,69.4,65.3,96,89,67,30.03,29.73,10,1,10,0.45
2013-9-13,72.9,66.2,55.6,69.0,61.7,50.2,99,86,62,29.86,29.67,9,2,9,0.06
2013-9-14,64.8,55.6,48.0,50.3,48.2,45.5,92,78,53,30.14,29.85,9,2,9,0.00
2013-9-15,70.5,53.9,40.5,51.2,45.0,38.1,97,76,32,30.22,30.11,8,1,8,0.00
2013-9-16,66.6,56.4,50.0,59.4,51.7,44.6,98,85,59,30.28,30.06,9,1,9,0.04
2013-9-17,63.1,50.5,38.3,44.6,37.9,28.5,94,66,27,30.44,30.28,7,2,7,0.00
2013-9-18,73.9,52.6,36.5,50.4,41.8,34.6,95,72,27,30.37,30.19,7,1,7,0.00
2013-9-19,79.2,62.0,40.6,55.6,47.9,39.1,95,65,27,30.21,30.09,5,1,5,0.00
2013-9-20,79.7,59.4,43.7,57.8,49.6,40.7,96,75,29,30.13,30.03,7,1,7,0.00
2013-9-21,68.5,62.2,53.8,67.0,59.8,51.2,96,92,82,30.06,29.71,10,2,10,0.34
2013-9-22,67.5,60.3,50.2,66.1,53.9,41.5,99,81,50,29.92,29.66,13,2,13,0.66
2013-9-23,61.2,50.7,41.9,44.7,41.2,38.1,93,72,43,30.06,29.91,10,2,10,0.00
2013-9-24,70.0,52.1,39.2,45.9,40.5,32.6,95,70,27,30.06,29.88,11,2,11,0.00
2013-9-25,71.6,54.0,40.1,50.8,45.4,38.3,95,76,40,29.98,29.90,10,1,10,0.00
2013-9-26,68.0,58.5,51.3,53.5,51.1,47.2,92,78,50,30.14,29.98,5,1,5,0.00
2013-9-27,61.9,54.7,47.3,53.8,49.7,45.4,95,84,65,30.30,30.13,5,1,5,0.00
2013-9-28,72.5,56.9,43.7,56.6,48.8,42.4,96,78,41,30.34,30.27,5,1,5,0.00
2013-9-29,71.4,55.9,44.6,58.1,48.3,42.6,95,79,41,30.28,30.11,5,1,5,0.00
2013-9-30,72.9,56.0,42.8,54.3,47.5,41.2,95,76,42,30.13,29.99,5,1,5,0.00
2013-10-1,78.1,59.5,43.5,58.1,50.9,41.7,95,77,40,30.02,29.93,9,1,9,0.00
2013-10-2,80.4,62.9,49.1,62.2,55.4,47.7,97,79,46,30.05,29.94,9,1,9,0.00
2013-10-3,75.9,60.4,46.8,56.9,50.5,42.0,96,74,30,30.15,30.05,6,1,6,0.00
2013-10-4,79.0,62.5,54.0,65.1,56.9,51.9,94,83,60,30.11,30.01,6,1,6,0.00
2013-10-5,74.1,64.7,59.2,64.2,60.9,57.0,96,88,70,30.14,30.07,5,1,5,0.05
2013-10-6,64.4,60.5,57.6,62.4,60.0,57.3,99,98,92,30.18,30.10,5,2,5,0.49
2013-10-7,72.7,64.1,55.2,70.8,63.4,53.9,99,97,89,30.10,29.81,14,3,14,0.30
2013-10-8,63.7,56.9,45.9,53.9,44.4,36.8,98,68,39,30.37,29.98,10,2,10,0.00
2013-10-9,61.7,52.0,42.6,45.8,43.1,40.0,95,74,47,30.42,30.32,8,2,8,0.00
2013-10-10,59.5,53.4,47.7,51.8,47.7,43.6,90,81,72,30.33,30.13,6,2,6,0.00
2013-10-11,68.2,60.2,53.1,57.0,51.8,41.5,89,74,55,30.14,30.06,6,2,6,0.00
2013-10-12,69.6,58.9,52.3,54.3,49.3,42.2,86,71,53,30.35,30.13,10,3,10,0.00
2013-10-13,63.0,54.6,46.0,51.5,47.3,43.6,92,77,57,30.42,30.33,8,2,8,0.00
2013-10-14,68.4,52.4,40.1,49.4,45.0,38.7,95,78,36,30.40,30.25,6,1,6,0.00
2013-10-15,72.9,56.7,47.3,55.3,46.8,37.0,95,73,39,30.28,30.15,5,1,5,0.00
2013-10-16,62.1,55.2,45.5,52.6,48.6,41.4,91,79,65,30.16,29.93,4,1,4,0.00
2013-10-17,75.9,62.9,55.2,60.6,57.0,52.6,97,83,46,29.94,29.69,7,2,7,0.06
2013-10-18,68.0,59.6,47.7,61.8,47.0,36.5,99,66,34,29.97,29.65,12,3,12,0.04
2013-10-19,64.6,51.1,37.0,50.2,41.0,32.7,94,72,32,29.98,29.75,9,2,9,0.08
2013-10-20,61.9,52.1,40.1,51.1,39.2,29.0,95,66,30,30.06,29.73,17,2,17,0.02
2013-10-21,66.9,49.1,33.8,45.1,36.1,28.2,95,67,24,30.14,29.99,9,2,9,0.00
2013-10-22,65.3,50.2,38.7,52.7,43.5,36.8,94,79,47,29.99,29.73,8,1,8,0.00
2013-10-23,52.3,42.9,32.5,41.5,33.3,25.4,95,72,38,29.81,29.60,7,1,7,0.00
2013-10-24,54.7,43.7,32.0,35.9,26.7,17.3,92,55,23,29.96,29.72,18,3,18,0.00
2013-10-25,50.0,40.1,30.0,32.8,27.2,22.8,86,62,35,30.20,29.95,16,2,16,0.00
2013-10-26,54.7,40.1,25.2,35.6,26.0,19.1,92,63,25,30.20,29.89,16,3,16,0.00
2013-10-27,57.7,47.3,35.2,37.6,29.1,18.9,80,52,22,30.11,29.83,16,2,16,0.00
2013-10-28,60.8,43.3,27.7,35.8,28.4,24.0,91,61,25,30.34,30.10,14,2,14,0.00
2013-10-29,53.2,42.4,33.3,28.6,23.4,18.8,78,49,26,30.44,30.34,7,2,7,0.00
2013-10-30,53.1,41.9,32.5,42.4,34.5,26.9,92,76,55,30.36,30.19,5,1,5,0.00
2013-10-31,60.8,49.0,35.8,57.7,47.1,34.2,99,93,85,30.25,29.82,6,2,6,0.00
2013-11-1,68.0,60.5,52.3,61.3,56.1,48.8,99,86,59,29.82,29.53,25,3,25,0.00
2013-11-2,68.0,52.5,41.4,51.2,43.4,35.2,96,75,32,29.79,29.62,11,1,11,0.00
2013-11-3,48.6,40.5,30.2,42.7,30.2,13.9,94,68,43,30.45,29.79,10,3,10,0.00
2013-11-4,45.0,33.6,25.7,22.4,13.7,0.9,78,49,16,30.67,30.44,9,2,9,0.00
2013-11-5,52.7,41.1,29.5,36.4,29.6,21.4,81,64,46,30.68,30.50,8,2,8,0.00
2013-11-6,59.7,48.6,35.6,48.6,40.9,33.2,93,76,51,30.50,30.07,10,2,10,0.00
2013-11-7,61.3,51.4,38.7,56.5,48.1,30.9,95,88,74,30.07,29.73,12,2,12,0.57
2013-11-8,49.1,42.3,35.2,33.5,28.9,23.6,89,61,39,29.99,29.88,17,3,17,0.00
2013-11-9,48.0,37.0,26.1,32.2,26.9,20.7,92,69,36,30.26,29.99,7,1,7,0.00
2013-11-10,60.1,44.7,37.8,40.6,33.5,27.7,84,66,31,30.00,29.79,16,2,16,0.02
2013-11-11,51.4,44.2,33.8,30.7,26.3,19.8,76,50,30,30.17,29.93,14,3,14,0.00
2013-11-12,48.7,34.1,26.6,35.9,21.2,13.9,88,60,45,30.23,29.91,14,4,14,0.01
2013-11-13,37.4,28.8,23.0,15.1,11.6,2.9,66,50,24,30.34,30.22,14,3,14,0.00
2013-11-14,53.1,38.6,25.5,19.3,11.6,-2.6,70,38,10,30.22,30.11,12,2,12,0.00
2013-11-15,59.2,43.5,25.9,24.4,12.4,1.0,76,38,10,30.24,30.14,6,2,6,0.00
2013-11-16,62.2,45.2,30.2,38.4,31.1,20.5,90,63,21,30.32,30.22,9,1,9,0.00
2013-11-17,58.3,50.8,37.8,57.8,49.2,35.1,99,94,86,30.29,29.82,8,2,8,0.02
2013-11-18,65.8,57.4,46.6,60.2,40.7,21.9,99,60,25,29.82,29.58,18,4,18,0.15
2013-11-19,46.6,39.6,30.2,28.3,21.5,16.8,61,48,38,30.33,29.74,17,5,17,0.00
2013-11-20,44.2,31.8,23.2,16.9,10.8,-10.2,73,47,10,30.62,30.34,8,2,8,0.00
2013-11-21,49.3,35.2,20.8,33.3,23.4,14.1,83,64,32,30.63,30.39,8,1,8,0.00
2013-11-22,50.2,44.1,39.4,49.1,41.5,33.0,97,91,75,30.39,29.86,5,0,5,0.14
2013-11-23,50.7,39.6,27.9,48.1,24.0,5.8,93,56,27,30.02,29.86,17,4,17,0.00
2013-11-24,27.5,22.8,19.0,10.6,0.1,-12.2,59,38,17,30.29,29.92,20,6,27,0.00
2013-11-25,34.2,24.4,13.1,13.0,8.2,4.6,76,51,29,30.42,30.29,10,2,10,0.00
2013-11-26,37.6,33.1,29.3,36.6,20.2,10.4,99,61,42,30.32,29.90,10,2,10,0.27
2013-11-27,60.1,44.7,33.3,59.8,43.1,28.0,99,94,74,29.89,29.30,22,4,22,2.37
2013-11-28,33.8,28.2,21.6,28.1,14.6,8.0,81,58,34,30.45,29.64,16,1,16,0.00
2013-11-29,35.2,26.6,21.2,22.1,16.8,13.2,85,67,45,30.72,30.44,9,1,9,0.00
2013-11-30,32.9,24.8,15.3,21.3,10.8,1.9,83,58,28,30.76,30.38,6,2,6,0.00
2013-12-1,48.7,37.0,29.5,36.9,30.2,21.3,90,77,62,30.38,30.01,6,1,6,0.00
2013-12-2,43.0,34.2,27.9,36.4,31.5,26.1,96,90,75,30.01,29.90,5,1,5,0.00
2013-12-3,51.1,34.9,25.0,37.9,29.8,23.5,95,83,49,30.00,29.87,10,1,10,0.00
2013-12-4,51.8,36.2,25.3,36.0,30.1,23.5,95,80,50,30.17,29.99,8,1,8,0.00
2013-12-5,52.9,46.7,39.4,52.6,44.7,34.5,99,93,75,30.17,29.94,6,2,6,0.02
2013-12-6,53.1,43.2,33.4,52.6,41.5,32.4,99,93,70,30.14,29.88,16,2,16,0.41
2013-12-7,37.9,32.2,26.4,32.4,26.9,16.6,97,81,63,30.50,30.08,16,1,16,0.04
2013-12-8,29.8,25.6,17.8,22.7,18.5,15.1,91,75,60,30.58,30.42,0,0,0,0.01
2013-12-9,33.4,30.0,25.0,32.8,28.8,21.8,98,95,83,30.42,29.93,3,0,3,0.05
2013-12-10,32.4,28.8,19.4,31.9,27.9,17.7,98,96,93,30.05,29.81,6,0,6,0.02
2013-12-11,30.0,22.8,16.7,22.4,18.2,14.5,94,83,66,30.25,30.05,10,1,10,0.00
2013-12-12,24.8,18.1,7.7,16.4,9.5,4.0,85,70,47,30.30,30.09,12,1,12,0.00
2013-12-13,32.5,22.7,7.9,17.6,11.6,4.4,86,63,45,30.34,30.02,16,3,16,0.00
2013-12-14,21.2,16.2,12.7,16.7,11.4,8.5,94,82,60,30.52,29.93,12,4,12,0.00
2013-12-15,32.9,28.0,18.3,31.2,25.6,16.9,97,91,79,29.93,29.48,18,3,18,0.05
2013-12-16,29.7,22.7,7.7,20.9,9.8,2.4,84,58,36,30.20,29.76,17,3,17,0.00
2013-12-17,17.8,12.6,2.8,15.1,9.4,-1.0,91,86,79,30.22,29.93,7,2,7,0.05
2013-12-18,34.2,26.4,17.2,22.1,19.6,14.6,91,76,57,30.11,29.90,13,2,13,0.00
2013-12-19,45.0,32.9,20.5,26.7,21.9,16.2,85,65,40,30.14,29.98,13,2,13,0.01
2013-12-20,52.0,38.8,28.6,32.7,29.4,25.6,90,71,43,30.11,29.95,6,1,6,0.00
2013-12-21,58.8,44.8,33.4,45.0,38.2,30.6,93,78,59,29.99,29.88,5,1,5,0.00
2013-12-22,62.4,55.3,41.7,60.2,53.0,40.4,99,92,81,29.96,29.78,14,2,14,0.01
2013-12-23,56.5,49.9,35.2,55.9,48.3,29.1,99,94,78,30.12,29.89,10,2,10,0.83
2013-12-24,36.1,31.0,22.6,29.4,19.7,12.7,81,64,41,30.26,30.07,11,3,11,0.00
2013-12-25,26.6,20.2,14.9,14.8,5.3,-1.0,72,53,33,30.49,30.26,13,2,13,0.00
2013-12-26,32.2,25.2,18.5,26.5,19.6,10.0,91,79,64,30.42,30.11,9,1,9,0.00
2013-12-27,37.6,25.1,14.2,24.3,17.9,12.1,92,76,42,30.31,30.21,11,1,11,0.02
2013-12-28,48.4,32.6,19.2,28.4,22.5,16.3,91,70,37,30.25,30.04,13,2,13,0.00
2013-12-29,39.7,34.4,29.1,39.5,32.2,24.8,99,92,77,30.04,29.43,9,2,9,0.72
2013-12-30,38.3,28.9,14.7,37.6,23.0,6.9,99,79,56,30.18,29.63,10,2,10,0.00
2013-12-31,27.0,19.6,11.7,20.0,11.3,6.7,87,70,55,30.21,30.02,14,1,14,0.00
2014-1-1,30.0,22.9,14.0,18.8,10.9,6.4,81,60,41,30.37,30.20,16,2,16,0.00
2014-1-2,23.5,17.0,7.9,18.9,13.3,5.4,89,85,79,30.28,29.72,16,6,16,0.01